sensor_id;sensor_type;location;lat;lon;timestamp;P1;durP1;ratioP1;P2;durP2;ratioP2
35188;SDS011;21762;54.480;18.556;2022-09-21T00:01:42;4.47;;;2.55;;
35188;SDS011;21762;54.480;18.556;2022-09-21T00:04:10;6.05;;;1.60;;
35188;SDS011;21762;54.480;18.556;2022-09-21T00:06:41;4.90;;;1.23;;
35188;SDS011;21762;54.480;18.556;2022-09-21T00:09:09;4.75;;;1.40;;
35188;SDS011;21762;54.480;18.556;2022-09-21T00:11:37;5.72;;;1.48;;
35188;SDS011;21762;54.480;18.556;2022-09-21T00:14:07;5.13;;;1.20;;
35188;SDS011;21762;54.480;18.556;2022-09-21T00:16:38;2.50;;;1.33;;
35188;SDS011;21762;54.480;18.556;2022-09-21T00:19:08;3.50;;;1.27;;
35188;SDS011;21762;54.480;18.556;2022-09-21T00:21:36;2.47;;;1.27;;
35188;SDS011;21762;54.480;18.556;2022-09-21T00:24:05;4.55;;;1.55;;
35188;SDS011;21762;54.480;18.556;2022-09-21T00:26:33;3.90;;;1.42;;
35188;SDS011;21762;54.480;18.556;2022-09-21T00:29:02;2.38;;;1.45;;
35188;SDS011;21762;54.480;18.556;2022-09-21T00:31:30;4.38;;;1.40;;
35188;SDS011;21762;54.480;18.556;2022-09-21T00:33:58;6.22;;;1.58;;
35188;SDS011;21762;54.480;18.556;2022-09-21T00:36:30;3.97;;;1.20;;
35188;SDS011;21762;54.480;18.556;2022-09-21T00:39:00;7.50;;;1.73;;
35188;SDS011;21762;54.480;18.556;2022-09-21T00:41:29;4.32;;;1.50;;
35188;SDS011;21762;54.480;18.556;2022-09-21T00:44:17;6.07;;;1.55;;
35188;SDS011;21762;54.480;18.556;2022-09-21T00:46:50;4.70;;;1.33;;
35188;SDS011;21762;54.480;18.556;2022-09-21T00:49:20;1.77;;;1.00;;
35188;SDS011;21762;54.480;18.556;2022-09-21T00:51:53;5.47;;;1.40;;
35188;SDS011;21762;54.480;18.556;2022-09-21T00:54:23;2.70;;;1.25;;
35188;SDS011;21762;54.480;18.556;2022-09-21T00:56:53;5.05;;;1.23;;
35188;SDS011;21762;54.480;18.556;2022-09-21T00:59:23;6.82;;;1.42;;
35188;SDS011;21762;54.480;18.556;2022-09-21T01:01:54;1.63;;;1.05;;
35188;SDS011;21762;54.480;18.556;2022-09-21T01:04:25;2.35;;;1.27;;
35188;SDS011;21762;54.480;18.556;2022-09-21T01:06:55;5.75;;;1.70;;
35188;SDS011;21762;54.480;18.556;2022-09-21T01:09:25;3.13;;;1.10;;
35188;SDS011;21762;54.480;18.556;2022-09-21T01:11:58;6.93;;;1.83;;
35188;SDS011;21762;54.480;18.556;2022-09-21T01:14:44;3.67;;;1.55;;
35188;SDS011;21762;54.480;18.556;2022-09-21T01:17:23;6.28;;;1.52;;
35188;SDS011;21762;54.480;18.556;2022-09-21T01:20:04;4.15;;;1.40;;
35188;SDS011;21762;54.480;18.556;2022-09-21T01:22:53;4.70;;;1.38;;
35188;SDS011;21762;54.480;18.556;2022-09-21T01:25:31;4.68;;;1.55;;
35188;SDS011;21762;54.480;18.556;2022-09-21T01:28:07;3.88;;;1.15;;
35188;SDS011;21762;54.480;18.556;2022-09-21T01:30:44;5.38;;;1.20;;
35188;SDS011;21762;54.480;18.556;2022-09-21T01:33:15;4.93;;;1.58;;
35188;SDS011;21762;54.480;18.556;2022-09-21T01:35:46;3.45;;;1.42;;
35188;SDS011;21762;54.480;18.556;2022-09-21T01:38:16;4.05;;;1.52;;
35188;SDS011;21762;54.480;18.556;2022-09-21T01:40:49;5.78;;;1.85;;
35188;SDS011;21762;54.480;18.556;2022-09-21T01:43:20;5.10;;;1.70;;
35188;SDS011;21762;54.480;18.556;2022-09-21T01:45:53;4.00;;;1.55;;
35188;SDS011;21762;54.480;18.556;2022-09-21T01:48:23;5.78;;;1.40;;
35188;SDS011;21762;54.480;18.556;2022-09-21T01:50:52;3.97;;;1.02;;
35188;SDS011;21762;54.480;18.556;2022-09-21T01:53:22;3.63;;;0.90;;
35188;SDS011;21762;54.480;18.556;2022-09-21T01:55:54;2.78;;;1.00;;
35188;SDS011;21762;54.480;18.556;2022-09-21T01:58:25;2.78;;;1.05;;
35188;SDS011;21762;54.480;18.556;2022-09-21T02:01:00;1.85;;;0.90;;
35188;SDS011;21762;54.480;18.556;2022-09-21T02:03:31;6.25;;;1.08;;
35188;SDS011;21762;54.480;18.556;2022-09-21T02:06:00;7.13;;;1.10;;
35188;SDS011;21762;54.480;18.556;2022-09-21T02:08:29;3.50;;;1.30;;
35188;SDS011;21762;54.480;18.556;2022-09-21T02:10:59;1.92;;;0.80;;
35188;SDS011;21762;54.480;18.556;2022-09-21T02:13:30;1.97;;;1.10;;
35188;SDS011;21762;54.480;18.556;2022-09-21T02:16:06;6.78;;;1.63;;
35188;SDS011;21762;54.480;18.556;2022-09-21T02:18:42;3.80;;;1.30;;
35188;SDS011;21762;54.480;18.556;2022-09-21T02:21:17;6.97;;;1.60;;
35188;SDS011;21762;54.480;18.556;2022-09-21T02:23:52;2.10;;;1.23;;
35188;SDS011;21762;54.480;18.556;2022-09-21T02:26:28;2.67;;;1.13;;
35188;SDS011;21762;54.480;18.556;2022-09-21T02:29:03;8.07;;;1.10;;
35188;SDS011;21762;54.480;18.556;2022-09-21T02:31:38;2.10;;;1.30;;
35188;SDS011;21762;54.480;18.556;2022-09-21T02:34:11;2.53;;;1.10;;
35188;SDS011;21762;54.480;18.556;2022-09-21T02:36:46;2.25;;;1.15;;
35188;SDS011;21762;54.480;18.556;2022-09-21T02:39:23;3.45;;;1.98;;
35188;SDS011;21762;54.480;18.556;2022-09-21T02:41:59;8.07;;;1.17;;
35188;SDS011;21762;54.480;18.556;2022-09-21T02:44:29;3.35;;;1.42;;
35188;SDS011;21762;54.480;18.556;2022-09-21T02:47:02;2.78;;;1.15;;
35188;SDS011;21762;54.480;18.556;2022-09-21T02:49:33;2.08;;;1.20;;
35188;SDS011;21762;54.480;18.556;2022-09-21T02:52:06;2.00;;;1.33;;
35188;SDS011;21762;54.480;18.556;2022-09-21T02:54:36;2.85;;;1.23;;
35188;SDS011;21762;54.480;18.556;2022-09-21T02:57:09;3.67;;;1.30;;
35188;SDS011;21762;54.480;18.556;2022-09-21T02:59:38;1.80;;;1.27;;
35188;SDS011;21762;54.480;18.556;2022-09-21T03:02:09;3.53;;;1.10;;
35188;SDS011;21762;54.480;18.556;2022-09-21T03:04:38;5.85;;;2.15;;
35188;SDS011;21762;54.480;18.556;2022-09-21T03:07:07;5.63;;;1.25;;
35188;SDS011;21762;54.480;18.556;2022-09-21T03:09:35;5.00;;;1.30;;
35188;SDS011;21762;54.480;18.556;2022-09-21T03:12:03;2.25;;;1.20;;
35188;SDS011;21762;54.480;18.556;2022-09-21T03:14:32;6.47;;;1.50;;
35188;SDS011;21762;54.480;18.556;2022-09-21T03:17:00;2.63;;;1.10;;
35188;SDS011;21762;54.480;18.556;2022-09-21T03:19:32;4.68;;;0.93;;
35188;SDS011;21762;54.480;18.556;2022-09-21T03:22:00;0.93;;;0.60;;
35188;SDS011;21762;54.480;18.556;2022-09-21T03:24:28;2.80;;;0.75;;
35188;SDS011;21762;54.480;18.556;2022-09-21T03:27:15;1.58;;;0.73;;
35188;SDS011;21762;54.480;18.556;2022-09-21T03:29:44;1.60;;;0.60;;
35188;SDS011;21762;54.480;18.556;2022-09-21T03:32:13;3.22;;;0.80;;
35188;SDS011;21762;54.480;18.556;2022-09-21T03:34:42;2.08;;;0.60;;
35188;SDS011;21762;54.480;18.556;2022-09-21T03:37:10;1.50;;;0.80;;
35188;SDS011;21762;54.480;18.556;2022-09-21T03:39:38;2.92;;;0.90;;
35188;SDS011;21762;54.480;18.556;2022-09-21T03:42:06;1.63;;;0.68;;
35188;SDS011;21762;54.480;18.556;2022-09-21T03:44:36;4.45;;;0.90;;
35188;SDS011;21762;54.480;18.556;2022-09-21T03:47:04;2.72;;;0.80;;
35188;SDS011;21762;54.480;18.556;2022-09-21T03:49:33;4.53;;;0.90;;
35188;SDS011;21762;54.480;18.556;2022-09-21T03:52:05;3.83;;;0.98;;
35188;SDS011;21762;54.480;18.556;2022-09-21T03:54:33;3.05;;;1.20;;
35188;SDS011;21762;54.480;18.556;2022-09-21T03:57:01;1.70;;;1.10;;
35188;SDS011;21762;54.480;18.556;2022-09-21T03:59:29;3.65;;;1.58;;
35188;SDS011;21762;54.480;18.556;2022-09-21T04:01:57;2.28;;;1.25;;
35188;SDS011;21762;54.480;18.556;2022-09-21T04:04:26;6.30;;;2.00;;
35188;SDS011;21762;54.480;18.556;2022-09-21T04:06:55;2.35;;;1.15;;
35188;SDS011;21762;54.480;18.556;2022-09-21T04:09:24;3.78;;;1.23;;
35188;SDS011;21762;54.480;18.556;2022-09-21T04:14:24;1.48;;;0.80;;
35188;SDS011;21762;54.480;18.556;2022-09-21T04:16:53;2.58;;;1.02;;
35188;SDS011;21762;54.480;18.556;2022-09-21T04:19:23;1.75;;;1.05;;
35188;SDS011;21762;54.480;18.556;2022-09-21T04:21:51;3.00;;;0.98;;
35188;SDS011;21762;54.480;18.556;2022-09-21T04:24:21;1.50;;;0.70;;
35188;SDS011;21762;54.480;18.556;2022-09-21T04:26:51;4.22;;;0.82;;
35188;SDS011;21762;54.480;18.556;2022-09-21T04:29:19;3.47;;;1.33;;
35188;SDS011;21762;54.480;18.556;2022-09-21T04:31:47;1.83;;;0.82;;
35188;SDS011;21762;54.480;18.556;2022-09-21T04:34:17;2.72;;;0.80;;
35188;SDS011;21762;54.480;18.556;2022-09-21T04:36:45;2.72;;;1.00;;
35188;SDS011;21762;54.480;18.556;2022-09-21T04:39:15;4.03;;;0.90;;
35188;SDS011;21762;54.480;18.556;2022-09-21T04:41:43;2.10;;;0.73;;
35188;SDS011;21762;54.480;18.556;2022-09-21T04:44:14;3.83;;;0.80;;
35188;SDS011;21762;54.480;18.556;2022-09-21T04:46:44;6.93;;;0.90;;
35188;SDS011;21762;54.480;18.556;2022-09-21T04:49:12;2.95;;;1.27;;
35188;SDS011;21762;54.480;18.556;2022-09-21T04:51:43;3.53;;;1.33;;
35188;SDS011;21762;54.480;18.556;2022-09-21T04:54:11;5.78;;;1.10;;
35188;SDS011;21762;54.480;18.556;2022-09-21T04:56:39;3.42;;;0.82;;
35188;SDS011;21762;54.480;18.556;2022-09-21T04:59:07;6.25;;;1.13;;
35188;SDS011;21762;54.480;18.556;2022-09-21T05:01:37;3.80;;;1.15;;
35188;SDS011;21762;54.480;18.556;2022-09-21T05:04:05;5.78;;;2.25;;
35188;SDS011;21762;54.480;18.556;2022-09-21T05:06:33;4.40;;;1.42;;
35188;SDS011;21762;54.480;18.556;2022-09-21T05:09:01;4.80;;;1.30;;
35188;SDS011;21762;54.480;18.556;2022-09-21T05:11:47;4.05;;;1.20;;
35188;SDS011;21762;54.480;18.556;2022-09-21T05:14:17;4.97;;;1.10;;
35188;SDS011;21762;54.480;18.556;2022-09-21T05:16:46;2.85;;;1.33;;
35188;SDS011;21762;54.480;18.556;2022-09-21T05:19:15;4.15;;;1.20;;
35188;SDS011;21762;54.480;18.556;2022-09-21T05:21:44;4.43;;;1.45;;
35188;SDS011;21762;54.480;18.556;2022-09-21T05:24:12;1.98;;;1.00;;
35188;SDS011;21762;54.480;18.556;2022-09-21T05:26:40;4.43;;;0.90;;
35188;SDS011;21762;54.480;18.556;2022-09-21T05:29:10;6.55;;;1.35;;
35188;SDS011;21762;54.480;18.556;2022-09-21T05:31:42;6.18;;;1.20;;
35188;SDS011;21762;54.480;18.556;2022-09-21T05:34:22;4.15;;;1.33;;
35188;SDS011;21762;54.480;18.556;2022-09-21T05:37:02;4.00;;;0.95;;
35188;SDS011;21762;54.480;18.556;2022-09-21T05:39:33;4.25;;;0.88;;
35188;SDS011;21762;54.480;18.556;2022-09-21T05:42:02;3.67;;;1.02;;
35188;SDS011;21762;54.480;18.556;2022-09-21T05:44:31;4.97;;;1.15;;
35188;SDS011;21762;54.480;18.556;2022-09-21T05:47:01;4.97;;;1.02;;
35188;SDS011;21762;54.480;18.556;2022-09-21T05:49:38;3.67;;;1.00;;
35188;SDS011;21762;54.480;18.556;2022-09-21T05:52:16;5.65;;;1.67;;
35188;SDS011;21762;54.480;18.556;2022-09-21T05:54:50;4.78;;;1.10;;
35188;SDS011;21762;54.480;18.556;2022-09-21T05:57:25;3.38;;;1.20;;
35188;SDS011;21762;54.480;18.556;2022-09-21T06:00:00;3.97;;;1.50;;
35188;SDS011;21762;54.480;18.556;2022-09-21T06:02:44;4.80;;;1.60;;
35188;SDS011;21762;54.480;18.556;2022-09-21T06:05:19;5.18;;;1.05;;
35188;SDS011;21762;54.480;18.556;2022-09-21T06:07:48;1.92;;;0.88;;
35188;SDS011;21762;54.480;18.556;2022-09-21T06:10:16;4.32;;;0.80;;
35188;SDS011;21762;54.480;18.556;2022-09-21T06:12:44;5.30;;;2.00;;
35188;SDS011;21762;54.480;18.556;2022-09-21T06:15:14;2.95;;;0.98;;
35188;SDS011;21762;54.480;18.556;2022-09-21T06:17:43;2.30;;;1.25;;
35188;SDS011;21762;54.480;18.556;2022-09-21T06:20:11;4.90;;;1.20;;
35188;SDS011;21762;54.480;18.556;2022-09-21T06:22:40;4.07;;;1.88;;
35188;SDS011;21762;54.480;18.556;2022-09-21T06:25:08;5.90;;;1.40;;
35188;SDS011;21762;54.480;18.556;2022-09-21T06:27:37;7.72;;;1.52;;
35188;SDS011;21762;54.480;18.556;2022-09-21T06:30:05;2.70;;;1.23;;
35188;SDS011;21762;54.480;18.556;2022-09-21T06:32:34;3.15;;;1.50;;
35188;SDS011;21762;54.480;18.556;2022-09-21T06:35:02;4.00;;;1.40;;
35188;SDS011;21762;54.480;18.556;2022-09-21T06:37:31;3.90;;;1.70;;
35188;SDS011;21762;54.480;18.556;2022-09-21T06:40:00;4.28;;;1.80;;
35188;SDS011;21762;54.480;18.556;2022-09-21T06:42:28;3.55;;;1.60;;
35188;SDS011;21762;54.480;18.556;2022-09-21T06:44:56;4.22;;;1.50;;
35188;SDS011;21762;54.480;18.556;2022-09-21T06:47:27;4.50;;;1.30;;
35188;SDS011;21762;54.480;18.556;2022-09-21T06:49:56;5.25;;;1.23;;
35188;SDS011;21762;54.480;18.556;2022-09-21T06:52:24;4.45;;;1.30;;
35188;SDS011;21762;54.480;18.556;2022-09-21T06:54:52;3.63;;;1.23;;
35188;SDS011;21762;54.480;18.556;2022-09-21T06:57:21;4.68;;;1.23;;
35188;SDS011;21762;54.480;18.556;2022-09-21T06:59:50;3.05;;;1.10;;
35188;SDS011;21762;54.480;18.556;2022-09-21T07:02:18;2.17;;;1.42;;
35188;SDS011;21762;54.480;18.556;2022-09-21T07:04:47;2.42;;;0.93;;
35188;SDS011;21762;54.480;18.556;2022-09-21T07:07:17;3.28;;;1.13;;
35188;SDS011;21762;54.480;18.556;2022-09-21T07:09:45;3.30;;;1.33;;
35188;SDS011;21762;54.480;18.556;2022-09-21T07:12:34;3.40;;;1.00;;
35188;SDS011;21762;54.480;18.556;2022-09-21T07:15:03;5.07;;;1.40;;
35188;SDS011;21762;54.480;18.556;2022-09-21T07:17:33;2.60;;;1.40;;
35188;SDS011;21762;54.480;18.556;2022-09-21T07:20:02;2.35;;;1.10;;
35188;SDS011;21762;54.480;18.556;2022-09-21T07:22:31;3.42;;;1.27;;
35188;SDS011;21762;54.480;18.556;2022-09-21T07:24:59;3.92;;;1.50;;
35188;SDS011;21762;54.480;18.556;2022-09-21T07:27:28;5.35;;;1.50;;
35188;SDS011;21762;54.480;18.556;2022-09-21T07:29:58;3.65;;;1.15;;
35188;SDS011;21762;54.480;18.556;2022-09-21T07:32:26;3.92;;;1.40;;
35188;SDS011;21762;54.480;18.556;2022-09-21T07:34:56;3.60;;;1.00;;
35188;SDS011;21762;54.480;18.556;2022-09-21T07:37:24;3.30;;;1.20;;
35188;SDS011;21762;54.480;18.556;2022-09-21T07:39:53;1.88;;;1.25;;
35188;SDS011;21762;54.480;18.556;2022-09-21T07:42:21;2.45;;;1.02;;
35188;SDS011;21762;54.480;18.556;2022-09-21T07:44:51;2.47;;;1.15;;
35188;SDS011;21762;54.480;18.556;2022-09-21T07:47:29;4.18;;;1.02;;
35188;SDS011;21762;54.480;18.556;2022-09-21T07:49:58;5.10;;;1.00;;
35188;SDS011;21762;54.480;18.556;2022-09-21T07:52:28;4.85;;;2.47;;
35188;SDS011;21762;54.480;18.556;2022-09-21T07:54:56;2.28;;;1.10;;
35188;SDS011;21762;54.480;18.556;2022-09-21T07:57:24;3.40;;;0.90;;
35188;SDS011;21762;54.480;18.556;2022-09-21T08:00:10;3.75;;;0.93;;
35188;SDS011;21762;54.480;18.556;2022-09-21T08:02:40;2.88;;;1.00;;
35188;SDS011;21762;54.480;18.556;2022-09-21T08:05:12;2.55;;;1.02;;
35188;SDS011;21762;54.480;18.556;2022-09-21T08:07:40;3.33;;;1.10;;
35188;SDS011;21762;54.480;18.556;2022-09-21T08:10:08;5.82;;;1.30;;
35188;SDS011;21762;54.480;18.556;2022-09-21T08:12:39;5.70;;;1.00;;
35188;SDS011;21762;54.480;18.556;2022-09-21T08:15:09;2.50;;;1.00;;
35188;SDS011;21762;54.480;18.556;2022-09-21T08:17:47;3.45;;;0.95;;
35188;SDS011;21762;54.480;18.556;2022-09-21T08:20:17;2.15;;;0.75;;
35188;SDS011;21762;54.480;18.556;2022-09-21T08:22:45;2.55;;;1.08;;
35188;SDS011;21762;54.480;18.556;2022-09-21T08:25:13;2.13;;;0.73;;
35188;SDS011;21762;54.480;18.556;2022-09-21T08:27:41;1.65;;;0.47;;
35188;SDS011;21762;54.480;18.556;2022-09-21T08:30:12;2.80;;;0.40;;
35188;SDS011;21762;54.480;18.556;2022-09-21T08:32:41;2.53;;;0.40;;
35188;SDS011;21762;54.480;18.556;2022-09-21T08:35:18;1.05;;;0.52;;
35188;SDS011;21762;54.480;18.556;2022-09-21T08:37:46;2.10;;;0.88;;
35188;SDS011;21762;54.480;18.556;2022-09-21T08:40:16;1.98;;;0.47;;
35188;SDS011;21762;54.480;18.556;2022-09-21T08:42:47;1.23;;;0.50;;
35188;SDS011;21762;54.480;18.556;2022-09-21T08:45:19;3.55;;;0.73;;
35188;SDS011;21762;54.480;18.556;2022-09-21T08:47:48;5.65;;;0.60;;
35188;SDS011;21762;54.480;18.556;2022-09-21T08:50:27;3.17;;;0.45;;
35188;SDS011;21762;54.480;18.556;2022-09-21T08:53:00;2.13;;;0.40;;
35188;SDS011;21762;54.480;18.556;2022-09-21T08:55:32;3.10;;;0.55;;
35188;SDS011;21762;54.480;18.556;2022-09-21T08:58:00;2.10;;;0.52;;
35188;SDS011;21762;54.480;18.556;2022-09-21T09:00:28;1.42;;;0.50;;
35188;SDS011;21762;54.480;18.556;2022-09-21T09:03:08;2.35;;;0.60;;
35188;SDS011;21762;54.480;18.556;2022-09-21T09:05:48;3.63;;;0.50;;
35188;SDS011;21762;54.480;18.556;2022-09-21T09:08:23;1.23;;;0.50;;
35188;SDS011;21762;54.480;18.556;2022-09-21T09:11:14;1.70;;;0.30;;
35188;SDS011;21762;54.480;18.556;2022-09-21T09:13:51;5.10;;;0.70;;
35188;SDS011;21762;54.480;18.556;2022-09-21T09:16:38;4.20;;;0.60;;
35188;SDS011;21762;54.480;18.556;2022-09-21T09:19:15;2.60;;;0.40;;
35188;SDS011;21762;54.480;18.556;2022-09-21T09:21:47;0.85;;;0.45;;
35188;SDS011;21762;54.480;18.556;2022-09-21T09:24:17;2.55;;;0.45;;
35188;SDS011;21762;54.480;18.556;2022-09-21T09:26:50;1.45;;;0.50;;
35188;SDS011;21762;54.480;18.556;2022-09-21T09:29:20;2.75;;;0.40;;
35188;SDS011;21762;54.480;18.556;2022-09-21T09:31:50;1.05;;;0.30;;
35188;SDS011;21762;54.480;18.556;2022-09-21T09:34:22;2.50;;;0.50;;
35188;SDS011;21762;54.480;18.556;2022-09-21T09:36:53;1.90;;;0.60;;
35188;SDS011;21762;54.480;18.556;2022-09-21T09:39:25;2.45;;;0.38;;
35188;SDS011;21762;54.480;18.556;2022-09-21T09:42:13;0.95;;;0.43;;
35188;SDS011;21762;54.480;18.556;2022-09-21T09:47:46;3.20;;;0.60;;
35188;SDS011;21762;54.480;18.556;2022-09-21T09:50:22;3.53;;;0.77;;
35188;SDS011;21762;54.480;18.556;2022-09-21T09:52:56;7.30;;;0.75;;
35188;SDS011;21762;54.480;18.556;2022-09-21T09:55:28;1.13;;;1.02;;
35188;SDS011;21762;54.480;18.556;2022-09-21T09:58:03;2.60;;;0.40;;
35188;SDS011;21762;54.480;18.556;2022-09-21T10:00:31;1.00;;;0.63;;
35188;SDS011;21762;54.480;18.556;2022-09-21T10:03:00;2.65;;;0.50;;
35188;SDS011;21762;54.480;18.556;2022-09-21T10:05:30;5.82;;;0.80;;
35188;SDS011;21762;54.480;18.556;2022-09-21T10:10:36;1.65;;;0.55;;
35188;SDS011;21762;54.480;18.556;2022-09-21T10:13:05;1.38;;;0.40;;
35188;SDS011;21762;54.480;18.556;2022-09-21T10:15:41;2.30;;;0.70;;
35188;SDS011;21762;54.480;18.556;2022-09-21T10:18:15;2.45;;;0.75;;
35188;SDS011;21762;54.480;18.556;2022-09-21T10:20:59;3.65;;;0.85;;
35188;SDS011;21762;54.480;18.556;2022-09-21T10:23:30;4.35;;;1.25;;
35188;SDS011;21762;54.480;18.556;2022-09-21T10:25:59;1.67;;;0.60;;
35188;SDS011;21762;54.480;18.556;2022-09-21T10:28:30;1.27;;;0.40;;
35188;SDS011;21762;54.480;18.556;2022-09-21T10:31:07;1.88;;;0.40;;
35188;SDS011;21762;54.480;18.556;2022-09-21T10:33:49;2.47;;;0.40;;
35188;SDS011;21762;54.480;18.556;2022-09-21T10:36:25;4.63;;;0.50;;
35188;SDS011;21762;54.480;18.556;2022-09-21T10:41:56;4.75;;;1.92;;
35188;SDS011;21762;54.480;18.556;2022-09-21T10:44:36;1.85;;;0.82;;
35188;SDS011;21762;54.480;18.556;2022-09-21T10:47:14;3.30;;;0.43;;
35188;SDS011;21762;54.480;18.556;2022-09-21T10:49:45;0.60;;;0.25;;
35188;SDS011;21762;54.480;18.556;2022-09-21T10:52:16;2.72;;;0.50;;
35188;SDS011;21762;54.480;18.556;2022-09-21T10:54:48;5.10;;;0.63;;
35188;SDS011;21762;54.480;18.556;2022-09-21T10:57:19;2.08;;;0.43;;
35188;SDS011;21762;54.480;18.556;2022-09-21T10:59:49;2.35;;;0.60;;
35188;SDS011;21762;54.480;18.556;2022-09-21T11:02:23;1.98;;;0.60;;
35188;SDS011;21762;54.480;18.556;2022-09-21T11:04:56;3.83;;;0.70;;
35188;SDS011;21762;54.480;18.556;2022-09-21T11:07:27;1.42;;;0.60;;
35188;SDS011;21762;54.480;18.556;2022-09-21T11:10:03;2.25;;;0.55;;
35188;SDS011;21762;54.480;18.556;2022-09-21T11:12:42;1.50;;;0.40;;
35188;SDS011;21762;54.480;18.556;2022-09-21T11:15:29;2.22;;;0.40;;
35188;SDS011;21762;54.480;18.556;2022-09-21T11:18:04;3.10;;;0.52;;
35188;SDS011;21762;54.480;18.556;2022-09-21T11:20:38;3.03;;;0.65;;
35188;SDS011;21762;54.480;18.556;2022-09-21T11:23:12;3.08;;;0.50;;
35188;SDS011;21762;54.480;18.556;2022-09-21T11:25:49;2.25;;;0.80;;
35188;SDS011;21762;54.480;18.556;2022-09-21T11:28:23;4.35;;;1.63;;
35188;SDS011;21762;54.480;18.556;2022-09-21T11:31:02;2.60;;;1.02;;
35188;SDS011;21762;54.480;18.556;2022-09-21T11:33:48;3.95;;;0.80;;
35188;SDS011;21762;54.480;18.556;2022-09-21T11:36:32;2.40;;;0.63;;
35188;SDS011;21762;54.480;18.556;2022-09-21T11:39:08;3.35;;;0.82;;
35188;SDS011;21762;54.480;18.556;2022-09-21T11:41:47;2.88;;;0.50;;
35188;SDS011;21762;54.480;18.556;2022-09-21T11:44:36;2.20;;;0.70;;
35188;SDS011;21762;54.480;18.556;2022-09-21T11:47:16;2.80;;;0.73;;
35188;SDS011;21762;54.480;18.556;2022-09-21T11:50:02;2.58;;;0.57;;
35188;SDS011;21762;54.480;18.556;2022-09-21T11:53:00;4.53;;;0.70;;
35188;SDS011;21762;54.480;18.556;2022-09-21T11:55:41;1.60;;;0.80;;
35188;SDS011;21762;54.480;18.556;2022-09-21T11:58:18;4.55;;;1.30;;
35188;SDS011;21762;54.480;18.556;2022-09-21T12:00:53;4.95;;;0.60;;
35188;SDS011;21762;54.480;18.556;2022-09-21T12:03:47;2.75;;;0.93;;
35188;SDS011;21762;54.480;18.556;2022-09-21T12:06:29;4.63;;;0.30;;
35188;SDS011;21762;54.480;18.556;2022-09-21T12:09:14;3.22;;;0.75;;
35188;SDS011;21762;54.480;18.556;2022-09-21T12:11:53;1.85;;;0.40;;
35188;SDS011;21762;54.480;18.556;2022-09-21T12:14:28;4.13;;;0.50;;
35188;SDS011;21762;54.480;18.556;2022-09-21T12:17:02;2.05;;;0.43;;
35188;SDS011;21762;54.480;18.556;2022-09-21T12:19:35;1.08;;;0.50;;
35188;SDS011;21762;54.480;18.556;2022-09-21T12:22:08;4.07;;;0.50;;
35188;SDS011;21762;54.480;18.556;2022-09-21T12:24:38;3.13;;;0.40;;
35188;SDS011;21762;54.480;18.556;2022-09-21T12:27:10;4.03;;;0.73;;
35188;SDS011;21762;54.480;18.556;2022-09-21T12:29:46;2.20;;;1.27;;
35188;SDS011;21762;54.480;18.556;2022-09-21T12:32:20;4.30;;;0.70;;
35188;SDS011;21762;54.480;18.556;2022-09-21T12:34:52;4.95;;;0.70;;
35188;SDS011;21762;54.480;18.556;2022-09-21T12:37:24;1.60;;;0.90;;
35188;SDS011;21762;54.480;18.556;2022-09-21T12:39:55;2.90;;;0.65;;
35188;SDS011;21762;54.480;18.556;2022-09-21T12:42:29;5.30;;;0.60;;
35188;SDS011;21762;54.480;18.556;2022-09-21T12:45:02;1.73;;;0.50;;
35188;SDS011;21762;54.480;18.556;2022-09-21T12:47:38;4.72;;;0.60;;
35188;SDS011;21762;54.480;18.556;2022-09-21T12:50:15;6.00;;;0.63;;
35188;SDS011;21762;54.480;18.556;2022-09-21T12:52:48;2.92;;;0.73;;
35188;SDS011;21762;54.480;18.556;2022-09-21T12:55:32;3.70;;;0.40;;
35188;SDS011;21762;54.480;18.556;2022-09-21T12:58:13;0.98;;;0.20;;
35188;SDS011;21762;54.480;18.556;2022-09-21T13:00:48;7.07;;;0.73;;
35188;SDS011;21762;54.480;18.556;2022-09-21T13:03:24;3.67;;;0.80;;
35188;SDS011;21762;54.480;18.556;2022-09-21T13:06:05;0.85;;;0.60;;
35188;SDS011;21762;54.480;18.556;2022-09-21T13:08:50;2.20;;;0.30;;
35188;SDS011;21762;54.480;18.556;2022-09-21T13:11:22;0.57;;;0.35;;
35188;SDS011;21762;54.480;18.556;2022-09-21T13:13:51;3.30;;;0.50;;
35188;SDS011;21762;54.480;18.556;2022-09-21T13:16:26;0.82;;;0.43;;
35188;SDS011;21762;54.480;18.556;2022-09-21T13:18:57;4.22;;;0.77;;
35188;SDS011;21762;54.480;18.556;2022-09-21T13:21:27;6.38;;;0.77;;
35188;SDS011;21762;54.480;18.556;2022-09-21T13:23:57;0.95;;;0.52;;
35188;SDS011;21762;54.480;18.556;2022-09-21T13:26:28;1.20;;;0.40;;
35188;SDS011;21762;54.480;18.556;2022-09-21T13:32:06;1.27;;;0.80;;
35188;SDS011;21762;54.480;18.556;2022-09-21T13:34:48;2.88;;;0.38;;
35188;SDS011;21762;54.480;18.556;2022-09-21T13:43:20;8.23;;;1.20;;
35188;SDS011;21762;54.480;18.556;2022-09-21T13:45:51;1.70;;;0.40;;
35188;SDS011;21762;54.480;18.556;2022-09-21T13:48:26;1.50;;;0.50;;
35188;SDS011;21762;54.480;18.556;2022-09-21T13:50:59;3.85;;;0.70;;
35188;SDS011;21762;54.480;18.556;2022-09-21T13:53:38;3.10;;;0.75;;
35188;SDS011;21762;54.480;18.556;2022-09-21T13:56:09;1.02;;;0.38;;
35188;SDS011;21762;54.480;18.556;2022-09-21T13:58:46;0.88;;;0.35;;
35188;SDS011;21762;54.480;18.556;2022-09-21T14:01:20;2.13;;;0.40;;
35188;SDS011;21762;54.480;18.556;2022-09-21T14:04:21;2.10;;;0.40;;
35188;SDS011;21762;54.480;18.556;2022-09-21T14:07:08;2.67;;;1.20;;
35188;SDS011;21762;54.480;18.556;2022-09-21T14:09:38;4.32;;;0.90;;
35188;SDS011;21762;54.480;18.556;2022-09-21T14:12:09;4.25;;;0.63;;
35188;SDS011;21762;54.480;18.556;2022-09-21T14:23:10;1.20;;;0.55;;
35188;SDS011;21762;54.480;18.556;2022-09-21T14:25:51;5.32;;;0.60;;
35188;SDS011;21762;54.480;18.556;2022-09-21T14:28:24;2.22;;;0.73;;
35188;SDS011;21762;54.480;18.556;2022-09-21T14:31:00;1.10;;;0.40;;
35188;SDS011;21762;54.480;18.556;2022-09-21T14:33:34;3.25;;;0.40;;
35188;SDS011;21762;54.480;18.556;2022-09-21T14:36:14;4.40;;;0.65;;
35188;SDS011;21762;54.480;18.556;2022-09-21T14:38:46;1.90;;;0.70;;
35188;SDS011;21762;54.480;18.556;2022-09-21T14:41:19;5.50;;;0.47;;
35188;SDS011;21762;54.480;18.556;2022-09-21T14:43:49;0.57;;;0.40;;
35188;SDS011;21762;54.480;18.556;2022-09-21T14:46:31;1.67;;;0.80;;
35188;SDS011;21762;54.480;18.556;2022-09-21T14:49:20;5.35;;;0.68;;
35188;SDS011;21762;54.480;18.556;2022-09-21T14:51:57;2.75;;;0.50;;
35188;SDS011;21762;54.480;18.556;2022-09-21T14:54:40;2.65;;;1.15;;
35188;SDS011;21762;54.480;18.556;2022-09-21T14:57:25;2.42;;;0.45;;
35188;SDS011;21762;54.480;18.556;2022-09-21T15:00:15;1.40;;;0.47;;
35188;SDS011;21762;54.480;18.556;2022-09-21T15:02:51;1.50;;;0.40;;
35188;SDS011;21762;54.480;18.556;2022-09-21T15:05:28;1.23;;;0.60;;
35188;SDS011;21762;54.480;18.556;2022-09-21T15:08:07;2.50;;;0.77;;
35188;SDS011;21762;54.480;18.556;2022-09-21T15:11:00;3.75;;;1.15;;
35188;SDS011;21762;54.480;18.556;2022-09-21T15:13:41;2.53;;;0.80;;
35188;SDS011;21762;54.480;18.556;2022-09-21T15:16:30;1.00;;;0.40;;
35188;SDS011;21762;54.480;18.556;2022-09-21T15:19:13;4.05;;;0.60;;
35188;SDS011;21762;54.480;18.556;2022-09-21T15:21:47;4.55;;;0.73;;
35188;SDS011;21762;54.480;18.556;2022-09-21T15:24:19;2.08;;;0.80;;
35188;SDS011;21762;54.480;18.556;2022-09-21T15:26:51;1.35;;;0.57;;
35188;SDS011;21762;54.480;18.556;2022-09-21T15:29:24;4.00;;;0.82;;
35188;SDS011;21762;54.480;18.556;2022-09-21T15:31:53;3.83;;;0.90;;
35188;SDS011;21762;54.480;18.556;2022-09-21T15:34:23;5.45;;;1.08;;
35188;SDS011;21762;54.480;18.556;2022-09-21T15:36:51;1.30;;;0.68;;